Time;durP1;ratioP1;P1;durP2;ratioP2;P2;SDS_P1;SDS_P2;PMS_P1;PMS_P2;Temp;Humidity;BMP_temperature;BMP_pressure;BME280_temperature;BME280_humidity;BME280_pressure;Samples;Min_cycle;Max_cycle;Signal;HPM_P1;HPM_P2
2023/07/29 00:02:00;;;;;;;7.40;3.60;;;22.40;99.90;;;;;;4993708;28;20057;-52
2023/07/29 00:05:05;;;;;;;8.20;3.60;;;22.30;99.90;;;;;;4994073;28;20054;-49
2023/07/29 00:08:09;;;;;;;8.00;3.55;;;22.30;99.90;;;;;;4993876;28;20054;-50
2023/07/29 00:11:13;;;;;;;7.60;4.13;;;22.20;99.90;;;;;;4993475;28;20512;-50
2023/07/29 00:14:17;;;;;;;6.63;3.60;;;22.20;99.90;;;;;;4993351;28;20041;-49
2023/07/29 00:17:22;;;;;;;6.65;3.78;;;22.20;99.90;;;;;;4993598;28;20045;-49
2023/07/29 00:20:26;;;;;;;6.93;3.60;;;22.10;99.90;;;;;;4993304;28;20041;-50
2023/07/29 00:23:30;;;;;;;7.43;3.65;;;22.10;99.90;;;;;;4993113;28;20045;-51
2023/07/29 00:26:34;;;;;;;5.97;3.30;;;22.10;99.90;;;;;;4993448;28;20049;-49
2023/07/29 00:29:39;;;;;;;7.45;3.20;;;22.10;99.90;;;;;;4991958;28;20042;-52
2023/07/29 00:32:42;;;;;;;5.20;3.03;;;22.10;99.90;;;;;;4992057;28;20061;-53
2023/07/29 00:35:46;;;;;;;7.65;3.15;;;22.10;99.90;;;;;;4993048;28;20049;-53
2023/07/29 00:38:52;;;;;;;6.10;3.17;;;22.20;99.90;;;;;;4993351;28;20053;-49
2023/07/29 00:41:56;;;;;;;6.57;3.30;;;22.30;99.90;;;;;;4992792;28;20041;-49
2023/07/29 00:45:00;;;;;;;6.93;3.33;;;22.30;99.90;;;;;;4993014;28;20050;-53
2023/07/29 00:48:05;;;;;;;8.90;3.65;;;22.40;99.90;;;;;;4992900;28;20061;-51
2023/07/29 00:51:08;;;;;;;8.23;3.13;;;22.50;99.90;;;;;;4991921;28;20081;-50
2023/07/29 00:54:13;;;;;;;6.85;3.47;;;22.60;99.90;;;;;;4992667;28;20057;-49
2023/07/29 00:57:20;;;;;;;9.65;3.35;;;22.60;99.90;;;;;;5003337;28;20468;-48
2023/07/29 01:00:24;;;;;;;8.15;3.70;;;22.50;99.90;;;;;;4992613;28;20073;-49
2023/07/29 01:03:28;;;;;;;10.25;3.50;;;22.40;99.90;;;;;;4991724;28;20049;-50
2023/07/29 01:06:50;;;;;;;8.05;3.08;;;22.40;99.90;;;;;;4991828;28;20057;-51
2023/07/29 01:09:59;;;;;;;5.72;3.13;;;22.30;99.90;;;;;;4991197;28;20520;-51
2023/07/29 01:13:18;;;;;;;5.68;3.33;;;22.30;99.90;;;;;;4991202;28;20053;-52
2023/07/29 01:16:41;;;;;;;8.38;2.83;;;22.20;99.90;;;;;;4992314;28;20049;-51
2023/07/29 01:20:03;;;;;;;4.88;3.20;;;22.20;99.90;;;;;;4991628;28;20516;-51
2023/07/29 01:23:08;;;;;;;7.50;3.15;;;22.10;99.90;;;;;;4991938;28;20045;-49
2023/07/29 01:26:13;;;;;;;9.18;3.67;;;22.00;99.90;;;;;;4992321;28;20046;-52
2023/07/29 01:29:18;;;;;;;8.07;3.15;;;22.00;99.90;;;;;;4992169;28;20049;-51
2023/07/29 01:32:29;;;;;;;9.07;3.22;;;22.00;99.90;;;;;;5002232;28;20045;-52
2023/07/29 01:35:42;;;;;;;8.45;3.35;;;21.90;99.90;;;;;;4992011;28;20046;-52
2023/07/29 01:38:47;;;;;;;7.93;3.30;;;21.90;99.90;;;;;;4991557;28;20053;-54
2023/07/29 01:41:52;;;;;;;6.93;3.67;;;21.90;99.90;;;;;;4991883;28;20049;-53
2023/07/29 01:44:56;;;;;;;5.25;2.97;;;21.80;99.90;;;;;;5002724;28;20057;-53
2023/07/29 01:48:00;;;;;;;6.55;3.70;;;21.80;99.90;;;;;;4992204;28;20405;-52
2023/07/29 01:51:04;;;;;;;10.43;3.53;;;21.80;99.90;;;;;;4991750;28;20045;-49
2023/07/29 01:54:08;;;;;;;7.53;3.13;;;21.70;99.90;;;;;;4991199;28;20045;-51
2023/07/29 01:57:13;;;;;;;10.38;3.38;;;21.70;99.90;;;;;;4991202;28;20053;-50
2023/07/29 02:00:19;;;;;;;10.30;3.83;;;21.70;99.90;;;;;;4991060;28;20065;-53
2023/07/29 02:03:23;;;;;;;9.60;3.75;;;21.60;99.90;;;;;;5002178;28;20409;-50
2023/07/29 02:06:28;;;;;;;6.10;3.03;;;21.60;99.90;;;;;;4990614;28;20045;-53
2023/07/29 02:09:32;;;;;;;7.75;2.97;;;21.50;99.90;;;;;;4991806;28;20061;-51
2023/07/29 02:12:36;;;;;;;9.48;3.10;;;21.50;99.90;;;;;;4991054;28;20057;-53
2023/07/29 02:15:41;;;;;;;7.22;3.22;;;21.40;99.90;;;;;;5002001;28;20512;-52
2023/07/29 02:18:45;;;;;;;6.97;2.88;;;21.40;99.90;;;;;;4990759;28;20053;-51
2023/07/29 02:21:50;;;;;;;8.35;3.28;;;21.40;99.90;;;;;;4989456;28;20045;-51
2023/07/29 02:24:54;;;;;;;7.82;3.50;;;21.30;99.90;;;;;;5002019;28;20061;-52
2023/07/29 02:27:58;;;;;;;6.50;2.97;;;21.20;99.90;;;;;;4990421;28;20539;-48
2023/07/29 02:31:13;;;;;;;9.73;3.28;;;21.20;99.90;;;;;;4991254;28;20045;-49
2023/07/29 02:34:19;;;;;;;4.95;3.28;;;21.20;99.90;;;;;;4990100;28;20065;-51
2023/07/29 02:37:23;;;;;;;5.80;2.88;;;21.20;99.90;;;;;;5001508;28;20421;-50
2023/07/29 02:40:29;;;;;;;8.35;3.38;;;21.10;99.90;;;;;;4990861;28;20053;-51
2023/07/29 02:43:33;;;;;;;6.25;3.05;;;21.20;99.90;;;;;;4990728;28;20142;-51
2023/07/29 02:46:37;;;;;;;7.95;3.25;;;21.10;99.90;;;;;;4990750;28;20049;-49
2023/07/29 02:49:41;;;;;;;5.70;2.65;;;21.10;99.90;;;;;;4990248;28;20050;-49
2023/07/29 02:52:45;;;;;;;10.07;3.38;;;21.10;99.90;;;;;;4990261;28;20071;-49
2023/07/29 02:55:49;;;;;;;6.18;2.83;;;21.10;99.90;;;;;;5000919;28;20049;-49
2023/07/29 02:58:54;;;;;;;6.90;3.00;;;21.10;99.90;;;;;;4989907;28;20532;-51
2023/07/29 03:01:58;;;;;;;5.75;2.78;;;21.20;99.90;;;;;;4989294;28;20065;-54
2023/07/29 03:05:03;;;;;;;6.57;2.80;;;21.20;99.90;;;;;;4989559;28;20425;-51
2023/07/29 03:08:08;;;;;;;5.45;2.58;;;21.10;99.90;;;;;;4989714;28;20049;-49
2023/07/29 03:11:14;;;;;;;6.85;2.72;;;21.10;99.90;;;;;;4989583;28;20049;-54
2023/07/29 03:14:18;;;;;;;10.48;3.50;;;21.10;99.90;;;;;;5000727;28;20045;-52
2023/07/29 03:17:22;;;;;;;8.35;3.50;;;21.00;99.90;;;;;;4990630;28;20057;-49
2023/07/29 03:20:26;;;;;;;5.95;3.42;;;20.80;99.90;;;;;;4989562;28;20049;-50
2023/07/29 03:23:31;;;;;;;7.88;3.47;;;20.50;99.90;;;;;;5000383;28;20045;-49
2023/07/29 03:26:35;;;;;;;6.63;4.18;;;20.30;99.90;;;;;;4990418;28;20053;-50
2023/07/29 03:29:39;;;;;;;7.03;4.30;;;20.20;99.90;;;;;;4990283;28;20053;-49
2023/07/29 03:32:45;;;;;;;10.18;4.70;;;20.10;99.90;;;;;;4989990;28;20045;-51
2023/07/29 03:35:49;;;;;;;7.43;4.68;;;20.10;99.90;;;;;;4994162;28;20045;-50
2023/07/29 03:38:53;;;;;;;7.65;5.13;;;20.00;99.90;;;;;;4994424;28;20528;-50
2023/07/29 03:41:58;;;;;;;10.38;6.05;;;20.00;99.90;;;;;;4994009;28;20045;-52
2023/07/29 03:45:02;;;;;;;9.75;5.07;;;20.00;99.90;;;;;;4993952;28;20045;-55
2023/07/29 03:48:06;;;;;;;9.93;4.95;;;20.00;99.90;;;;;;4993333;28;20409;-50
2023/07/29 03:51:11;;;;;;;11.48;5.00;;;20.00;99.90;;;;;;4993086;28;20041;-49
2023/07/29 03:54:15;;;;;;;13.13;5.57;;;20.00;99.90;;;;;;4992921;28;20061;-50
2023/07/29 03:57:21;;;;;;;11.88;4.95;;;20.00;99.90;;;;;;4993715;28;20045;-49
2023/07/29 04:00:25;;;;;;;9.50;5.78;;;19.90;99.90;;;;;;4993122;28;20037;-49
2023/07/29 04:03:30;;;;;;;9.60;5.20;;;19.60;99.90;;;;;;5003590;28;20045;-51
2023/07/29 04:06:35;;;;;;;12.57;5.57;;;19.60;99.90;;;;;;4993021;28;20052;-49
2023/07/29 04:09:43;;;;;;;16.02;5.70;;;19.50;99.90;;;;;;5004183;28;20042;-51
2023/07/29 04:12:47;;;;;;;11.70;6.68;;;19.50;99.90;;;;;;4992112;28;20069;-51
2023/07/29 04:15:51;;;;;;;17.08;7.53;;;19.50;99.90;;;;;;4992340;28;20054;-55
2023/07/29 04:18:54;;;;;;;9.68;6.80;;;19.50;99.90;;;;;;4993404;28;20037;-52
2023/07/29 04:21:59;;;;;;;9.15;5.88;;;19.50;99.90;;;;;;5003623;28;20046;-51
2023/07/29 04:25:04;;;;;;;9.77;6.22;;;19.60;99.90;;;;;;5003968;28;20053;-49
2023/07/29 04:28:09;;;;;;;9.15;5.57;;;19.60;99.90;;;;;;4993323;28;20421;-52
2023/07/29 04:31:13;;;;;;;13.20;7.07;;;19.70;99.90;;;;;;4991693;28;20041;-53
2023/07/29 04:34:19;;;;;;;13.50;6.75;;;19.80;99.90;;;;;;4991877;28;20413;-52
2023/07/29 04:37:23;;;;;;;10.95;6.38;;;19.90;99.90;;;;;;4993235;28;20496;-49
2023/07/29 04:40:27;;;;;;;9.43;6.38;;;20.00;99.90;;;;;;5003682;28;20053;-51
2023/07/29 04:43:32;;;;;;;11.45;6.43;;;20.20;99.90;;;;;;4992494;28;20049;-50
2023/07/29 04:46:38;;;;;;;14.55;5.82;;;20.20;99.90;;;;;;5003263;28;20053;-50
2023/07/29 04:49:43;;;;;;;11.57;6.45;;;20.20;99.90;;;;;;4992664;28;20045;-48
2023/07/29 04:52:47;;;;;;;11.07;6.38;;;20.30;99.90;;;;;;4992207;28;20068;-51
2023/07/29 04:55:51;;;;;;;11.45;5.40;;;20.40;99.90;;;;;;4992730;28;20053;-49
2023/07/29 04:58:56;;;;;;;6.97;5.10;;;21.10;99.90;;;;;;4993144;28;20401;-52
2023/07/29 05:02:00;;;;;;;7.65;4.55;;;23.30;99.90;;;;;;4992876;28;20038;-50
2023/07/29 05:05:05;;;;;;;6.82;4.20;;;25.20;99.90;;;;;;4991718;28;20057;-51
2023/07/29 05:08:08;;;;;;;14.75;4.80;;;26.40;99.90;;;;;;4992912;28;20077;-53
2023/07/29 05:11:12;;;;;;;12.13;3.88;;;26.70;99.90;;;;;;5003167;28;20114;-49
2023/07/29 05:14:19;;;;;;;9.80;4.78;;;26.70;99.90;;;;;;5047871;22;20055;-62
2023/07/29 05:17:23;;;;;;;10.00;4.55;;;26.80;99.90;;;;;;5059002;28;20122;-62
2023/07/29 05:20:28;;;;;;;5.65;4.43;;;26.90;99.90;;;;;;5071726;28;20407;-57
2023/07/29 05:23:32;;;;;;;9.65;3.80;;;26.00;99.90;;;;;;5071242;28;20040;-62
2023/07/29 05:26:36;;;;;;;8.43;3.95;;;26.20;99.90;;;;;;5059298;28;20048;-62
2023/07/29 05:29:40;;;;;;;8.88;3.80;;;26.80;99.90;;;;;;5059208;28;20055;-61
2023/07/29 05:32:44;;;;;;;7.97;4.00;;;27.20;99.90;;;;;;5063123;28;20043;-61
2023/07/29 05:35:48;;;;;;;12.35;4.28;;;28.20;99.90;;;;;;5063328;28;20056;-61
2023/07/29 05:38:53;;;;;;;10.23;3.72;;;29.70;99.90;;;;;;5070844;28;20399;-61
2023/07/29 05:41:57;;;;;;;7.57;3.63;;;30.10;99.90;;;;;;5070619;28;20051;-62
2023/07/29 05:45:02;;;;;;;9.23;4.25;;;30.70;99.90;;;;;;5071134;28;20423;-62
2023/07/29 05:48:08;;;;;;;6.63;3.65;;;31.20;99.90;;;;;;5071497;28;20043;-61
2023/07/29 05:51:12;;;;;;;7.22;3.58;;;30.90;99.90;;;;;;5071358;28;20047;-62
2023/07/29 05:54:17;;;;;;;8.10;3.30;;;30.40;99.90;;;;;;5070043;28;20403;-62
2023/07/29 05:57:22;;;;;;;9.00;3.35;;;30.90;99.90;;;;;;5070654;28;20431;-63
2023/07/29 06:00:26;;;;;;;6.93;3.25;;;29.80;99.90;;;;;;5071332;28;20051;-61
2023/07/29 06:03:31;;;;;;;9.32;3.33;;;29.70;99.90;;;;;;5069349;28;20043;-63
2023/07/29 06:06:35;;;;;;;8.30;4.05;;;28.40;99.90;;;;;;5070351;28;20043;-62
2023/07/29 06:09:40;;;;;;;6.18;3.60;;;26.70;99.90;;;;;;5070969;28;20048;-62
2023/07/29 06:12:45;;;;;;;11.98;4.45;;;26.10;99.90;;;;;;5069723;28;20411;-62
2023/07/29 06:15:49;;;;;;;9.68;4.32;;;24.20;99.90;;;;;;5068928;28;20048;-61
2023/07/29 06:18:54;;;;;;;8.07;5.47;;;23.30;99.90;;;;;;5067061;28;20048;-62
2023/07/29 06:22:01;;;;;;;9.93;4.80;;;23.50;99.90;;;;;;5066576;28;20290;-61
2023/07/29 06:25:05;;;;;;;8.15;3.90;;;24.80;99.90;;;;;;5070479;28;20044;-59
2023/07/29 06:28:11;;;;;;;7.15;3.47;;;27.20;99.90;;;;;;5070581;28;20063;-62
2023/07/29 06:31:15;;;;;;;6.72;3.67;;;29.00;99.90;;;;;;5061378;28;20043;-63
2023/07/29 06:34:19;;;;;;;15.20;4.00;;;29.80;99.90;;;;;;5070188;28;20051;-64
2023/07/29 06:37:23;;;;;;;9.73;3.45;;;30.10;99.90;;;;;;5069991;28;20039;-63
2023/07/29 06:40:27;;;;;;;10.73;3.70;;;29.80;99.90;;;;;;5070277;28;20047;-62
2023/07/29 06:43:31;;;;;;;8.52;3.33;;;29.20;99.90;;;;;;5069912;28;20048;-63
2023/07/29 06:46:35;;;;;;;6.90;3.10;;;29.30;99.90;;;;;;5070095;28;20052;-63
2023/07/29 06:49:40;;;;;;;5.28;3.00;;;29.80;99.90;;;;;;5070040;28;20051;-62
2023/07/29 06:52:45;;;;;;;5.70;3.42;;;29.70;99.90;;;;;;5069802;28;20067;-63
2023/07/29 06:55:50;;;;;;;7.85;3.22;;;29.50;99.90;;;;;;5069563;28;20044;-63
2023/07/29 06:58:54;;;;;;;5.30;3.15;;;30.30;99.90;;;;;;5070079;28;20047;-62
2023/07/29 07:02:00;;;;;;;8.45;3.40;;;30.00;99.90;;;;;;5069678;28;20111;-62
2023/07/29 07:05:04;;;;;;;7.35;3.25;;;30.70;99.90;;;;;;5069507;28;20044;-62
2023/07/29 07:08:08;;;;;;;10.32;3.40;;;30.30;99.90;;;;;;5069689;28;20035;-62
2023/07/29 07:11:12;;;;;;;6.20;3.58;;;29.80;99.90;;;;;;5068409;28;20067;-61
2023/07/29 07:14:16;;;;;;;8.00;3.47;;;28.20;99.90;;;;;;5069574;28;20044;-61
2023/07/29 07:17:20;;;;;;;6.97;3.33;;;28.10;99.90;;;;;;5069481;28;20410;-62
2023/07/29 07:20:24;;;;;;;6.30;2.80;;;29.90;99.90;;;;;;5069743;28;20048;-61
2023/07/29 07:23:28;;;;;;;13.60;3.05;;;29.90;99.90;;;;;;5069693;28;20060;-61
2023/07/29 07:26:32;;;;;;;7.40;3.03;;;31.50;99.90;;;;;;5069568;28;20059;-63
2023/07/29 07:29:36;;;;;;;7.60;2.92;;;33.10;99.50;;;;;;5069960;28;20506;-62
2023/07/29 07:32:40;;;;;;;6.60;2.45;;;34.30;97.50;;;;;;5069627;28;20044;-61
2023/07/29 07:35:44;;;;;;;4.88;2.60;;;35.10;96.60;;;;;;5069236;28;20052;-62
2023/07/29 07:38:48;;;;;;;4.20;2.13;;;35.80;95.20;;;;;;5069685;28;20043;-63
2023/07/29 07:41:52;;;;;;;7.68;2.70;;;36.50;94.30;;;;;;5069343;28;20044;-64
2023/07/29 07:44:56;;;;;;;7.40;2.20;;;37.10;93.10;;;;;;5069214;28;20039;-61
2023/07/29 07:48:01;;;;;;;5.78;2.92;;;37.80;92.80;;;;;;5069606;28;20507;-62
2023/07/29 07:51:12;;;;;;;5.90;2.45;;;36.50;92.20;;;;;;5069509;28;20518;-63
2023/07/29 07:54:16;;;;;;;6.47;2.35;;;35.10;94.00;;;;;;5069441;28;20047;-63
2023/07/29 07:57:23;;;;;;;6.43;2.42;;;34.40;93.70;;;;;;5069178;28;20415;-63
2023/07/29 08:00:27;;;;;;;5.65;2.25;;;36.10;93.00;;;;;;5069289;28;20048;-61
2023/07/29 08:03:32;;;;;;;5.70;2.78;;;36.00;93.30;;;;;;5069080;28;20047;-63
2023/07/29 08:06:36;;;;;;;16.27;2.58;;;34.10;93.50;;;;;;5068185;28;20051;-63
2023/07/29 08:09:40;;;;;;;5.75;2.25;;;33.10;94.50;;;;;;5069364;28;20032;-63
2023/07/29 08:12:44;;;;;;;7.18;2.40;;;34.10;94.20;;;;;;5068952;28;20044;-61
2023/07/29 08:15:50;;;;;;;5.50;2.10;;;35.60;93.30;;;;;;5068669;28;20055;-61
2023/07/29 08:18:55;;;;;;;5.80;2.03;;;36.10;92.40;;;;;;5069230;28;20218;-59
2023/07/29 08:21:59;;;;;;;6.20;1.73;;;37.90;91.10;;;;;;5072703;28;20044;-61
2023/07/29 08:25:06;;;;;;;3.50;1.80;;;38.60;89.60;;;;;;5072625;28;20426;-62
2023/07/29 08:28:11;;;;;;;5.38;1.33;;;39.60;86.50;;;;;;5072722;28;20051;-63
2023/07/29 08:31:14;;;;;;;3.80;1.60;;;40.90;84.20;;;;;;5072534;28;20047;-60
2023/07/29 08:34:18;;;;;;;5.70;1.75;;;42.40;81.30;;;;;;5071739;28;20506;-62
2023/07/29 08:37:23;;;;;;;4.43;2.03;;;43.60;79.60;;;;;;5072271;28;20044;-61
2023/07/29 08:40:31;;;;;;;5.53;1.48;;;43.70;79.00;;;;;;5072668;28;20055;-62
2023/07/29 08:43:39;;;;;;;3.17;1.60;;;42.80;78.00;;;;;;5072453;28;20051;-61
2023/07/29 08:46:43;;;;;;;4.43;1.58;;;38.00;83.40;;;;;;5071405;28;20044;-61
2023/07/29 08:49:50;;;;;;;3.85;1.50;;;40.60;81.90;;;;;;5072568;28;20055;-60
2023/07/29 08:52:54;;;;;;;4.80;1.40;;;42.40;79.80;;;;;;5072081;28;20055;-62
2023/07/29 08:55:59;;;;;;;9.43;2.42;;;42.20;78.70;;;;;;5071987;28;20723;-63
2023/07/29 08:59:04;;;;;;;3.72;1.60;;;42.10;78.30;;;;;;5072281;28;20505;-61
2023/07/29 09:02:10;;;;;;;3.53;1.63;;;42.60;78.30;;;;;;5071899;28;20051;-60
2023/07/29 09:05:14;;;;;;;3.28;1.30;;;44.40;75.90;;;;;;5072129;28;20044;-61
2023/07/29 09:08:19;;;;;;;3.85;1.60;;;45.00;75.30;;;;;;5071935;28;20052;-61
2023/07/29 09:11:24;;;;;;;3.42;1.63;;;45.60;72.70;;;;;;5071766;28;20048;-61
2023/07/29 09:14:28;;;;;;;3.53;1.58;;;45.70;72.40;;;;;;5071847;28;20063;-61
2023/07/29 09:17:35;;;;;;;4.88;1.67;;;44.80;72.60;;;;;;5071365;28;20048;-60
2023/07/29 09:20:39;;;;;;;6.70;2.10;;;42.30;75.40;;;;;;5071883;28;20047;-60
2023/07/29 09:23:44;;;;;;;6.22;2.05;;;40.10;77.80;;;;;;5070726;28;20273;-63
2023/07/29 09:26:50;;;;;;;4.38;1.95;;;38.40;79.90;;;;;;5070992;28;20510;-62
2023/07/29 09:29:56;;;;;;;6.68;2.28;;;37.30;80.80;;;;;;5071038;28;20056;-63
2023/07/29 09:32:59;;;;;;;6.70;2.13;;;36.50;82.30;;;;;;5070157;28;20044;-63
2023/07/29 09:36:10;;;;;;;4.75;1.98;;;36.00;82.70;;;;;;5071249;28;20411;-63
2023/07/29 09:39:14;;;;;;;5.47;1.83;;;35.20;84.40;;;;;;5071450;28;20414;-63
2023/07/29 09:42:23;;;;;;;4.80;2.13;;;34.90;87.20;;;;;;5070667;28;20403;-63
2023/07/29 09:45:27;;;;;;;5.05;1.80;;;36.20;87.00;;;;;;5071332;28;20035;-63
2023/07/29 09:48:35;;;;;;;5.90;2.17;;;38.60;83.40;;;;;;5070640;28;20182;-64
2023/07/29 09:51:40;;;;;;;4.88;1.98;;;38.00;82.00;;;;;;5070890;28;20406;-63
2023/07/29 09:54:45;;;;;;;5.95;2.10;;;37.80;83.40;;;;;;5070953;28;20051;-63
2023/07/29 09:57:57;;;;;;;4.65;1.95;;;36.80;83.20;;;;;;5070422;28;20047;-62
2023/07/29 10:01:01;;;;;;;6.53;2.08;;;39.10;81.80;;;;;;5071092;28;20036;-60
2023/07/29 10:04:05;;;;;;;5.68;1.83;;;38.30;81.70;;;;;;5071204;28;20051;-63
2023/07/29 10:07:11;;;;;;;4.95;1.92;;;41.70;80.00;;;;;;5070776;28;20044;-61
2023/07/29 10:10:16;;;;;;;3.92;1.67;;;45.10;76.90;;;;;;5071324;28;20047;-59
2023/07/29 10:13:21;;;;;;;5.95;2.45;;;45.40;73.10;;;;;;5070697;28;20506;-60
2023/07/29 10:16:25;;;;;;;5.72;2.00;;;43.50;75.00;;;;;;5071002;28;20411;-60
2023/07/29 10:19:30;;;;;;;4.18;1.90;;;41.60;77.00;;;;;;5071035;28;20048;-64
2023/07/29 10:22:41;;;;;;;4.40;1.85;;;40.70;78.30;;;;;;5070561;28;20043;-60
2023/07/29 10:25:54;;;;;;;3.40;1.52;;;40.20;78.90;;;;;;5070964;28;20068;-59
2023/07/29 10:29:04;;;;;;;4.47;1.90;;;39.10;79.70;;;;;;5070173;28;20040;-60
2023/07/29 10:32:11;;;;;;;4.20;1.88;;;40.20;79.60;;;;;;5070273;28;20043;-60
2023/07/29 10:35:15;;;;;;;5.45;2.45;;;41.00;78.60;;;;;;5070108;28;20047;-62
2023/07/29 10:38:22;;;;;;;3.90;1.95;;;40.60;79.00;;;;;;5069076;28;20044;-61
2023/07/29 10:41:54;;;;;;;4.35;2.13;;;41.60;78.70;;;;;;5070044;28;20506;-60
2023/07/29 10:44:58;;;;;;;6.53;2.63;;;41.50;76.60;;;;;;5070105;28;20052;-61
2023/07/29 10:48:33;;;;;;;5.82;2.47;;;38.70;78.30;;;;;;5069795;28;20043;-60
2023/07/29 10:51:37;;;;;;;5.28;2.35;;;37.50;80.60;;;;;;5069963;28;20049;-63
2023/07/29 10:54:48;;;;;;;7.72;2.97;;;36.20;83.10;;;;;;5069529;28;20419;-61
2023/07/29 10:57:52;;;;;;;7.80;2.20;;;36.10;83.90;;;;;;5069378;28;20040;-62
2023/07/29 11:00:56;;;;;;;7.55;2.20;;;37.70;82.50;;;;;;5070193;28;20043;-61
2023/07/29 11:04:26;;;;;;;3.97;2.28;;;37.30;82.40;;;;;;5069775;28;20039;-60
2023/07/29 11:07:30;;;;;;;7.60;2.22;;;37.50;82.10;;;;;;5069616;28;20036;-60
2023/07/29 11:10:44;;;;;;;4.22;2.55;;;37.30;82.90;;;;;;5069960;28;20044;-60
2023/07/29 11:13:48;;;;;;;7.78;2.72;;;36.60;83.80;;;;;;5069099;28;20051;-60
2023/07/29 11:16:53;;;;;;;5.97;2.22;;;36.60;84.30;;;;;;5084161;22;20063;-53
2023/07/29 11:20:00;;;;;;;5.55;2.47;;;36.90;83.70;;;;;;5069307;28;20446;-52
2023/07/29 11:23:04;;;;;;;7.25;2.72;;;37.20;83.00;;;;;;5066592;28;20067;-53
2023/07/29 11:26:08;;;;;;;6.03;2.60;;;38.20;81.70;;;;;;5067987;28;20039;-52
2023/07/29 11:29:13;;;;;;;5.45;1.77;;;38.70;80.90;;;;;;5069747;28;20466;-51
2023/07/29 11:32:16;;;;;;;5.88;2.10;;;38.00;81.70;;;;;;5069605;28;20541;-54
2023/07/29 11:35:20;;;;;;;3.17;1.98;;;37.80;82.70;;;;;;5069678;28;20044;-50
2023/07/29 11:38:26;;;;;;;9.70;2.70;;;37.50;82.90;;;;;;5069547;28;20044;-54
2023/07/29 11:41:30;;;;;;;5.70;2.42;;;36.70;84.50;;;;;;5069474;28;20534;-56
2023/07/29 11:44:34;;;;;;;5.28;2.20;;;36.30;85.80;;;;;;5069537;28;20048;-53
2023/07/29 11:47:38;;;;;;;6.10;2.33;;;38.20;84.40;;;;;;5069603;28;20051;-57
2023/07/29 11:50:42;;;;;;;6.22;2.20;;;41.40;79.50;;;;;;5069418;28;20047;-57
2023/07/29 11:53:46;;;;;;;6.43;2.22;;;43.50;76.50;;;;;;5069343;28;20407;-55
2023/07/29 11:56:50;;;;;;;3.83;2.28;;;43.70;74.70;;;;;;5072874;28;20047;-53
2023/07/29 11:59:54;;;;;;;7.47;2.65;;;40.90;77.10;;;;;;5073041;28;20040;-53
2023/07/29 12:03:00;;;;;;;4.82;2.60;;;38.90;79.20;;;;;;5073000;28;20047;-56
2023/07/29 12:06:05;;;;;;;5.70;2.40;;;38.40;80.20;;;;;;5073400;28;20039;-55
2023/07/29 12:09:09;;;;;;;6.45;2.80;;;38.10;81.70;;;;;;5072863;28;20047;-56
2023/07/29 12:12:15;;;;;;;5.25;2.75;;;37.80;81.80;;;;;;5073192;28;20039;-50
2023/07/29 12:15:29;;;;;;;7.40;2.30;;;37.80;81.10;;;;;;5072876;28;20051;-56
2023/07/29 12:18:33;;;;;;;5.43;2.42;;;37.90;80.70;;;;;;5073121;28;20040;-56
2023/07/29 12:21:37;;;;;;;5.35;2.22;;;38.80;81.10;;;;;;5073014;28;20103;-56
2023/07/29 12:24:42;;;;;;;5.50;2.40;;;40.50;78.80;;;;;;5073193;28;20047;-55
2023/07/29 12:27:47;;;;;;;6.10;2.70;;;41.50;76.60;;;;;;5073027;28;20048;-57
2023/07/29 12:30:55;;;;;;;7.00;2.63;;;41.70;76.40;;;;;;5073395;28;20059;-53
2023/07/29 12:34:00;;;;;;;7.90;2.63;;;41.60;76.30;;;;;;5073008;28;20052;-55
2023/07/29 12:37:04;;;;;;;5.85;2.65;;;41.30;76.30;;;;;;5072972;28;20051;-53
2023/07/29 12:40:24;;;;;;;4.85;2.35;;;41.00;77.60;;;;;;5072595;28;20043;-51
2023/07/29 12:43:28;;;;;;;5.63;2.80;;;40.10;76.80;;;;;;5072313;28;20047;-50
2023/07/29 12:46:32;;;;;;;4.55;2.67;;;39.40;77.90;;;;;;5072290;28;20047;-53
2023/07/29 12:49:36;;;;;;;8.73;2.97;;;38.40;79.40;;;;;;5072414;28;20051;-55
2023/07/29 12:52:40;;;;;;;6.20;2.60;;;38.60;80.60;;;;;;5072333;28;20059;-55
2023/07/29 12:55:44;;;;;;;7.95;3.10;;;39.00;79.30;;;;;;5072015;28;20291;-54
2023/07/29 12:58:48;;;;;;;7.15;3.15;;;38.70;79.80;;;;;;5072073;28;20120;-51
2023/07/29 13:01:52;;;;;;;6.70;2.83;;;38.00;80.20;;;;;;5072304;28;20506;-50
2023/07/29 13:04:55;;;;;;;4.68;2.72;;;38.00;80.40;;;;;;5071987;28;20526;-51
2023/07/29 13:08:00;;;;;;;7.45;2.47;;;37.50;80.90;;;;;;5072071;28;20429;-54
2023/07/29 13:11:04;;;;;;;12.50;3.20;;;37.40;81.40;;;;;;5071787;28;20052;-55
2023/07/29 13:14:08;;;;;;;4.63;2.90;;;37.80;82.50;;;;;;5072048;28;20059;-54
2023/07/29 13:17:13;;;;;;;10.40;2.85;;;37.80;81.60;;;;;;5071494;28;20047;-54
2023/07/29 13:20:17;;;;;;;8.27;2.75;;;38.20;80.60;;;;;;5071227;28;20039;-53
2023/07/29 13:23:21;;;;;;;7.80;2.75;;;38.60;80.10;;;;;;5071809;28;20044;-52
2023/07/29 13:26:25;;;;;;;4.53;2.53;;;39.00;80.20;;;;;;5071593;28;20052;-51
2023/07/29 13:29:29;;;;;;;7.70;2.63;;;38.10;80.00;;;;;;5071222;28;20043;-51
2023/07/29 13:32:34;;;;;;;5.65;2.80;;;37.20;80.90;;;;;;5070498;28;20383;-54
2023/07/29 13:35:38;;;;;;;5.63;2.85;;;37.00;81.20;;;;;;5071418;28;20035;-52
2023/07/29 13:38:42;;;;;;;4.90;2.60;;;36.70;82.40;;;;;;5071253;28;20047;-53
2023/07/29 13:41:46;;;;;;;5.90;2.83;;;37.30;81.10;;;;;;5071232;28;20067;-53
2023/07/29 13:44:50;;;;;;;4.63;2.67;;;37.20;82.00;;;;;;5071210;28;20040;-53
2023/07/29 13:47:54;;;;;;;6.88;3.00;;;37.70;82.10;;;;;;5071356;28;20051;-55
2023/07/29 13:50:58;;;;;;;6.55;2.88;;;38.00;81.10;;;;;;5070879;28;20048;-55
2023/07/29 13:54:02;;;;;;;4.45;2.80;;;38.20;81.30;;;;;;5071251;28;20039;-53
2023/07/29 13:57:06;;;;;;;6.68;3.25;;;38.40;81.00;;;;;;5070964;28;20044;-51
2023/07/29 14:00:10;;;;;;;9.07;2.90;;;36.60;81.40;;;;;;5070805;28;20047;-52
2023/07/29 14:03:17;;;;;;;11.77;3.08;;;36.00;84.00;;;;;;5070932;28;20059;-50
2023/07/29 14:06:21;;;;;;;7.53;3.33;;;35.30;85.20;;;;;;5070091;28;20044;-50
2023/07/29 14:09:26;;;;;;;7.72;3.00;;;35.80;85.00;;;;;;5071014;28;20036;-55
2023/07/29 14:12:31;;;;;;;4.43;2.92;;;36.40;84.90;;;;;;5070917;28;20040;-51
2023/07/29 14:15:35;;;;;;;8.10;3.60;;;36.80;83.60;;;;;;5070198;28;20048;-50
2023/07/29 14:18:38;;;;;;;6.38;3.22;;;37.20;83.30;;;;;;5069993;28;20052;-54
2023/07/29 14:21:42;;;;;;;5.70;2.75;;;37.20;82.40;;;;;;5069768;28;20036;-52
2023/07/29 14:24:47;;;;;;;7.57;3.30;;;36.90;83.50;;;;;;5070524;28;20046;-49
2023/07/29 14:27:51;;;;;;;6.38;2.88;;;36.10;83.90;;;;;;5070200;28;20055;-53
2023/07/29 14:30:55;;;;;;;6.95;3.03;;;36.10;85.20;;;;;;5070065;28;20067;-50
2023/07/29 14:33:59;;;;;;;6.90;3.65;;;36.10;84.40;;;;;;5070214;28;20051;-52
2023/07/29 14:37:04;;;;;;;4.18;2.78;;;35.20;83.70;;;;;;5070124;28;20127;-52
2023/07/29 14:40:08;;;;;;;4.00;2.90;;;34.90;86.20;;;;;;5069890;28;20047;-54
2023/07/29 14:43:12;;;;;;;14.55;4.10;;;35.00;85.30;;;;;;5069956;28;20039;-53
2023/07/29 14:46:16;;;;;;;6.57;3.25;;;35.20;85.10;;;;;;5070069;28;20051;-52
2023/07/29 14:49:20;;;;;;;6.15;3.38;;;35.70;83.70;;;;;;5070020;28;20035;-52
2023/07/29 14:52:24;;;;;;;7.90;2.90;;;36.00;85.50;;;;;;5069700;28;20051;-54
2023/07/29 14:55:28;;;;;;;8.05;2.95;;;36.40;85.50;;;;;;5069976;28;20035;-55
2023/07/29 14:58:32;;;;;;;7.22;3.10;;;36.50;85.30;;;;;;5069721;28;20036;-53
2023/07/29 15:01:36;;;;;;;6.43;3.13;;;36.50;85.10;;;;;;5069412;28;20039;-54
2023/07/29 15:04:40;;;;;;;4.05;2.72;;;36.40;84.70;;;;;;5070118;28;20044;-55
2023/07/29 15:07:44;;;;;;;7.60;3.03;;;36.00;84.80;;;;;;5069707;28;20438;-50
2023/07/29 15:10:48;;;;;;;6.15;2.90;;;35.50;83.10;;;;;;5069410;28;20081;-56
2023/07/29 15:13:52;;;;;;;5.00;3.00;;;35.30;86.90;;;;;;5069991;28;20055;-50
2023/07/29 15:16:57;;;;;;;9.25;3.00;;;35.40;86.20;;;;;;5057315;28;20043;-50
2023/07/29 15:20:02;;;;;;;5.82;3.00;;;35.40;85.50;;;;;;5069773;28;20403;-55
2023/07/29 15:23:06;;;;;;;8.63;3.35;;;34.80;85.90;;;;;;5057522;28;20510;-55
2023/07/29 15:26:10;;;;;;;6.45;3.60;;;34.40;86.00;;;;;;5070002;28;20043;-52
2023/07/29 15:29:14;;;;;;;6.07;2.90;;;33.90;86.40;;;;;;5069775;28;20044;-55
2023/07/29 15:32:18;;;;;;;8.60;3.05;;;34.20;88.20;;;;;;5073424;28;20051;-53
2023/07/29 15:35:22;;;;;;;4.72;2.75;;;34.40;88.00;;;;;;5073608;28;20059;-53
2023/07/29 15:38:27;;;;;;;8.93;3.38;;;34.60;87.10;;;;;;5073569;28;20051;-52
2023/07/29 15:41:33;;;;;;;10.25;3.88;;;34.00;87.00;;;;;;5073034;28;20098;-54
2023/07/29 15:44:38;;;;;;;7.07;3.15;;;33.40;88.80;;;;;;5073729;28;20048;-51
2023/07/29 15:47:42;;;;;;;5.85;2.88;;;32.90;89.30;;;;;;5073499;28;20517;-51
2023/07/29 15:50:46;;;;;;;7.43;3.20;;;32.60;89.60;;;;;;5073533;28;20047;-52
2023/07/29 15:53:53;;;;;;;6.38;3.35;;;32.60;90.00;;;;;;5073464;28;20052;-54
2023/07/29 15:57:01;;;;;;;5.03;2.70;;;32.80;88.30;;;;;;5073281;28;20044;-51
2023/07/29 16:00:07;;;;;;;6.30;2.83;;;33.00;89.60;;;;;;5073154;28;20036;-49
2023/07/29 16:03:15;;;;;;;5.78;2.85;;;32.80;89.50;;;;;;5072528;28;20083;-54